createdAt,value
2018-05-29T00:00:31.390Z,8.70
2018-05-29T00:01:05.785Z,8.70
2018-05-29T00:01:39.782Z,9.52
2018-05-29T00:02:13.725Z,8.82
2018-05-29T00:02:47.617Z,9.18
2018-05-29T00:03:21.611Z,9.15
2018-05-29T00:03:55.506Z,8.73
2018-05-29T00:04:29.372Z,8.27
2018-05-29T00:05:03.257Z,8.98
2018-05-29T00:05:37.809Z,8.65
2018-05-29T00:06:11.701Z,8.90
2018-05-29T00:06:45.873Z,8.00
2018-05-29T00:07:20.001Z,8.50
2018-05-29T00:07:53.885Z,8.90
2018-05-29T00:08:27.838Z,9.07
2018-05-29T00:09:01.847Z,9.10
2018-05-29T00:09:36.120Z,8.82
2018-05-29T00:10:10.097Z,8.23
2018-05-29T00:10:44.046Z,8.45
2018-05-29T00:11:18.563Z,8.98
2018-05-29T00:11:52.804Z,8.55
2018-05-29T00:12:26.767Z,8.80
2018-05-29T00:13:00.797Z,8.27
2018-05-29T00:13:34.682Z,8.80
2018-05-29T00:14:09.267Z,7.95
2018-05-29T00:14:43.163Z,8.98
2018-05-29T00:15:17.303Z,9.00
2018-05-29T00:15:51.551Z,9.45
2018-05-29T00:16:25.721Z,9.20
2018-05-29T00:16:59.683Z,9.80
2018-05-29T00:17:33.715Z,9.15
2018-05-29T00:18:07.625Z,9.13
2018-05-29T00:18:41.480Z,8.30
2018-05-29T00:19:15.441Z,9.25
2018-05-29T00:19:49.320Z,8.88
2018-05-29T00:20:23.192Z,8.43
2018-05-29T00:20:57.207Z,8.95
2018-05-29T00:21:31.083Z,8.63
2018-05-29T00:22:07.056Z,8.32
2018-05-29T00:22:40.953Z,8.20
2018-05-29T00:23:14.904Z,8.93
2018-05-29T00:23:48.773Z,7.93
2018-05-29T00:24:22.703Z,7.72
2018-05-29T00:24:56.605Z,9.15
2018-05-29T00:25:30.474Z,8.57
2018-05-29T00:26:04.332Z,8.48
2018-05-29T00:26:38.208Z,8.38
2018-05-29T00:27:12.073Z,9.32
2018-05-29T00:27:46.083Z,8.88
2018-05-29T00:28:19.983Z,9.38
2018-05-29T00:28:53.862Z,8.50
2018-05-29T00:29:27.775Z,7.75
2018-05-29T00:30:01.786Z,8.32
2018-05-29T00:30:35.943Z,7.95
2018-05-29T00:31:10.176Z,8.23
2018-05-29T00:31:44.257Z,9.02
2018-05-29T00:32:18.380Z,8.77
2018-05-29T00:32:52.482Z,8.80
2018-05-29T00:33:26.352Z,8.38
2018-05-29T00:34:01.049Z,9.70
2018-05-29T00:34:34.927Z,9.35
2018-05-29T00:35:08.974Z,7.85
2018-05-29T00:35:43.002Z,9.00
2018-05-29T00:36:17.038Z,8.60
2018-05-29T00:36:51.233Z,8.27
2018-05-29T00:37:25.523Z,8.85
2018-05-29T00:37:59.420Z,8.80
2018-05-29T00:38:33.300Z,9.45
2018-05-29T00:39:07.151Z,7.62
2018-05-29T00:39:41.143Z,8.55
2018-05-29T00:40:15.160Z,8.77
2018-05-29T00:40:49.984Z,8.43
2018-05-29T00:41:23.875Z,7.50
2018-05-29T00:41:57.754Z,8.27
2018-05-29T00:42:31.701Z,8.43
2018-05-29T00:43:05.824Z,8.55
2018-05-29T00:43:40.219Z,8.93
2018-05-29T00:44:14.304Z,7.97
2018-05-29T00:44:48.495Z,8.05
2018-05-29T00:45:22.488Z,8.63
2018-05-29T00:45:56.388Z,7.85
2018-05-29T00:46:30.939Z,9.30
2018-05-29T00:47:04.962Z,7.97
2018-05-29T00:47:39.136Z,8.32
2018-05-29T00:48:13.084Z,7.68
2018-05-29T00:48:47.064Z,8.43
2018-05-29T00:49:20.935Z,8.70
2018-05-29T00:49:55.078Z,7.87
2018-05-29T00:50:28.958Z,8.15
2018-05-29T00:51:02.824Z,8.27
2018-05-29T00:51:36.865Z,7.93
2018-05-29T00:52:10.901Z,8.73
2018-05-29T00:52:44.892Z,8.57
2018-05-29T00:53:19.314Z,8.30
2018-05-29T00:53:53.447Z,7.95
2018-05-29T00:54:27.340Z,8.65
2018-05-29T00:55:07.088Z,8.60
2018-05-29T00:55:40.967Z,8.32
2018-05-29T00:56:15.574Z,8.50
2018-05-29T00:56:49.633Z,8.00
2018-05-29T00:57:23.592Z,8.82
2018-05-29T00:57:59.364Z,8.27
2018-05-29T00:58:33.230Z,7.50
2018-05-29T00:59:07.117Z,8.88
2018-05-29T00:59:41.291Z,7.28
2018-05-29T01:00:17.068Z,7.82
2018-05-29T01:00:51.042Z,7.70
2018-05-29T01:01:24.910Z,8.82
2018-05-29T01:01:58.957Z,8.05
2018-05-29T01:02:32.824Z,7.85
2018-05-29T01:03:06.703Z,7.80
2018-05-29T01:03:40.764Z,8.10
2018-05-29T01:04:14.841Z,7.95
2018-05-29T01:04:48.754Z,8.18
2018-05-29T01:05:22.794Z,7.72
2018-05-29T01:05:56.742Z,8.40
2018-05-29T01:06:30.624Z,7.62
2018-05-29T01:07:04.970Z,8.10
2018-05-29T01:07:38.869Z,7.80
2018-05-29T01:08:13.518Z,7.82
2018-05-29T01:08:47.531Z,8.00
2018-05-29T01:09:21.404Z,8.25
2018-05-29T01:09:56.713Z,8.27
2018-05-29T01:10:31.052Z,7.50
2018-05-29T01:11:05.051Z,7.37
2018-05-29T01:11:38.929Z,8.23
2018-05-29T01:12:12.839Z,8.70
2018-05-29T01:12:46.721Z,7.35
2018-05-29T01:13:20.661Z,8.85
2018-05-29T01:13:55.480Z,7.78
2018-05-29T01:14:29.549Z,8.63
2018-05-29T01:15:05.912Z,8.45
2018-05-29T01:15:39.999Z,8.25
2018-05-29T01:16:13.895Z,7.50
2018-05-29T01:16:48.019Z,8.65
2018-05-29T01:17:22.001Z,8.90
2018-05-29T01:17:56.043Z,7.95
2018-05-29T01:18:29.979Z,7.57
2018-05-29T01:19:03.999Z,7.32
2018-05-29T01:19:37.923Z,8.00
2018-05-29T01:20:12.081Z,8.35
2018-05-29T01:20:46.072Z,7.65
2018-05-29T01:21:20.278Z,8.10
2018-05-29T01:21:54.379Z,7.43
2018-05-29T01:22:28.312Z,8.13
2018-05-29T01:23:02.190Z,8.57
2018-05-29T01:23:36.043Z,7.75
2018-05-29T01:24:09.956Z,7.70
2018-05-29T01:24:43.828Z,8.30
2018-05-29T01:25:17.990Z,8.05
2018-05-29T01:25:51.923Z,7.62
2018-05-29T01:26:25.962Z,7.72
2018-05-29T01:26:59.840Z,8.35
2018-05-29T01:27:33.800Z,7.82
2018-05-29T01:28:07.969Z,8.38
2018-05-29T01:28:41.848Z,7.80
2018-05-29T01:29:15.761Z,8.48
2018-05-29T01:29:49.638Z,7.03
2018-05-29T01:30:23.497Z,7.10
2018-05-29T01:30:57.390Z,8.02
2018-05-29T01:31:31.242Z,7.50
2018-05-29T01:32:05.117Z,7.70
2018-05-29T01:32:39.060Z,7.82
2018-05-29T01:33:13.113Z,7.95
2018-05-29T01:33:46.969Z,8.15
2018-05-29T01:34:21.061Z,8.43
2018-05-29T01:34:55.054Z,8.23
2018-05-29T01:35:29.061Z,7.70
2018-05-29T01:36:02.952Z,7.35
2018-05-29T01:36:36.853Z,8.63
2018-05-29T01:37:10.711Z,7.93
2018-05-29T01:37:44.559Z,8.15
2018-05-29T01:38:18.432Z,8.65
2018-05-29T01:38:52.469Z,7.75
2018-05-29T01:39:26.366Z,7.10
2018-05-29T01:40:00.235Z,7.62
2018-05-29T01:40:34.112Z,7.50
2018-05-29T01:41:08.023Z,7.95
2018-05-29T01:41:41.904Z,7.72
2018-05-29T01:42:15.953Z,8.25
2018-05-29T01:42:49.828Z,7.60
2018-05-29T01:43:23.691Z,8.75
2018-05-29T01:43:57.739Z,8.00
2018-05-29T01:44:31.666Z,7.37
2018-05-29T01:45:05.524Z,7.60
2018-05-29T01:45:39.393Z,7.47
2018-05-29T01:46:13.430Z,7.70
2018-05-29T01:46:47.302Z,7.80
2018-05-29T01:47:21.167Z,8.10
2018-05-29T01:47:55.256Z,7.80
2018-05-29T01:48:29.113Z,7.70
2018-05-29T01:49:03.133Z,8.80
2018-05-29T01:49:37.304Z,7.60
2018-05-29T01:50:11.293Z,7.70
2018-05-29T01:50:45.384Z,7.53
2018-05-29T01:51:19.253Z,8.10
2018-05-29T01:51:53.133Z,7.85
2018-05-29T01:52:26.988Z,7.60
2018-05-29T01:53:00.859Z,8.02
2018-05-29T01:53:34.774Z,7.65
2018-05-29T01:54:08.991Z,7.65
2018-05-29T01:54:42.872Z,7.30
2018-05-29T01:55:16.781Z,7.72
2018-05-29T01:55:50.644Z,7.82
2018-05-29T01:56:24.509Z,7.85
2018-05-29T01:56:58.390Z,8.27
2018-05-29T01:57:32.251Z,8.35
2018-05-29T01:58:06.102Z,7.95
2018-05-29T01:58:39.973Z,7.85
2018-05-29T01:59:13.851Z,7.05
2018-05-29T01:59:47.706Z,8.13
2018-05-29T02:00:21.627Z,7.78
2018-05-29T02:00:55.508Z,8.07
2018-05-29T02:01:29.396Z,7.43
2018-05-29T02:02:03.256Z,7.80
2018-05-29T02:02:37.133Z,7.90
2018-05-29T02:03:11.027Z,8.30
2018-05-29T02:03:45.102Z,8.27
2018-05-29T02:04:19.044Z,8.20
2018-05-29T02:04:52.866Z,7.43
2018-05-29T02:05:26.735Z,8.48
2018-05-29T02:06:00.600Z,8.02
2018-05-29T02:06:34.509Z,6.80
2018-05-29T02:07:08.389Z,7.85
2018-05-29T02:07:42.270Z,7.90
2018-05-29T02:08:16.143Z,8.25
2018-05-29T02:08:50.295Z,7.65
2018-05-29T02:09:24.173Z,7.32
2018-05-29T02:09:58.049Z,7.40
2018-05-29T02:10:31.923Z,7.82
2018-05-29T02:11:05.848Z,7.78
2018-05-29T02:11:39.752Z,7.45
2018-05-29T02:12:13.624Z,8.73
2018-05-29T02:12:47.654Z,8.45
2018-05-29T02:13:21.540Z,9.98
2018-05-29T02:13:55.551Z,8.00
2018-05-29T02:14:29.420Z,7.72
2018-05-29T02:15:03.315Z,8.00
2018-05-29T02:15:37.224Z,8.32
2018-05-29T02:16:11.089Z,8.00
2018-05-29T02:16:44.990Z,7.95
2018-05-29T02:17:18.893Z,7.65
2018-05-29T02:17:52.889Z,7.45
2018-05-29T02:18:26.755Z,7.85
2018-05-29T02:19:00.669Z,8.10
2018-05-29T02:19:34.586Z,6.90
2018-05-29T02:20:08.473Z,7.87
2018-05-29T02:20:42.346Z,8.68
2018-05-29T02:21:16.232Z,8.23
2018-05-29T02:21:50.108Z,8.30
2018-05-29T02:22:23.981Z,8.38
2018-05-29T02:22:57.848Z,7.85
2018-05-29T02:23:31.737Z,8.32
2018-05-29T02:24:05.614Z,7.90
2018-05-29T02:24:39.473Z,7.70
2018-05-29T02:25:13.348Z,8.00
2018-05-29T02:25:47.222Z,7.80
2018-05-29T02:26:21.108Z,8.85
2018-05-29T02:26:55.004Z,7.85
2018-05-29T02:27:28.902Z,7.45
2018-05-29T02:28:02.817Z,8.55
2018-05-29T02:28:36.716Z,7.90
2018-05-29T02:29:10.761Z,8.27
2018-05-29T02:29:44.632Z,8.55
2018-05-29T02:30:18.511Z,7.47
2018-05-29T02:30:52.376Z,7.97
2018-05-29T02:31:26.249Z,8.55
2018-05-29T02:32:00.147Z,8.20
2018-05-29T02:32:34.005Z,7.50
2018-05-29T02:33:07.865Z,8.70
2018-05-29T02:33:41.853Z,7.65
2018-05-29T02:34:15.737Z,8.68
2018-05-29T02:34:49.600Z,7.85
2018-05-29T02:35:23.855Z,7.93
2018-05-29T02:35:57.961Z,7.68
2018-05-29T02:36:31.858Z,8.70
2018-05-29T02:37:05.751Z,8.50
2018-05-29T02:37:40.158Z,7.80
2018-05-29T02:38:14.159Z,7.75
2018-05-29T02:38:48.030Z,8.38
2018-05-29T02:39:21.904Z,8.30
2018-05-29T02:39:55.833Z,7.93
2018-05-29T02:40:29.708Z,8.63
2018-05-29T02:41:03.585Z,7.50
2018-05-29T02:41:37.461Z,8.38
2018-05-29T02:42:11.367Z,8.38
2018-05-29T02:42:45.235Z,7.75
2018-05-29T02:43:19.226Z,8.05
2018-05-29T02:43:53.398Z,7.80
2018-05-29T02:44:27.305Z,8.55
2018-05-29T02:45:01.214Z,7.82
2018-05-29T02:45:35.200Z,8.27
2018-05-29T02:46:09.075Z,8.23
2018-05-29T02:46:42.951Z,8.05
2018-05-29T02:47:16.840Z,8.05
2018-05-29T02:47:50.715Z,8.30
2018-05-29T02:48:24.591Z,8.02
2018-05-29T02:48:58.765Z,8.05
2018-05-29T02:49:32.656Z,8.18
2018-05-29T02:50:06.576Z,7.95
2018-05-29T02:50:40.456Z,8.18
2018-05-29T02:51:14.338Z,8.05
2018-05-29T02:51:48.206Z,8.13
2018-05-29T02:52:22.096Z,8.30
2018-05-29T02:52:55.992Z,7.80
2018-05-29T02:53:29.869Z,7.75
2018-05-29T02:54:03.734Z,8.35
2018-05-29T02:54:37.590Z,8.32
2018-05-29T02:55:11.468Z,7.90
2018-05-29T02:55:45.338Z,7.68
2018-05-29T02:56:19.224Z,8.30
2018-05-29T02:56:53.091Z,8.32
2018-05-29T02:57:26.997Z,8.23
2018-05-29T02:58:00.893Z,8.32
2018-05-29T02:58:34.756Z,7.72
2018-05-29T02:59:08.795Z,8.63
2018-05-29T02:59:42.666Z,7.72
2018-05-29T03:00:16.676Z,8.40
2018-05-29T03:00:50.572Z,9.05
2018-05-29T03:01:24.671Z,8.07
2018-05-29T03:01:58.557Z,7.55
2018-05-29T03:02:32.695Z,7.82
2018-05-29T03:03:06.575Z,8.10
2018-05-29T03:03:40.444Z,7.28
2018-05-29T03:04:14.999Z,8.38
2018-05-29T03:04:48.876Z,7.90
2018-05-29T03:05:22.783Z,8.05
2018-05-29T03:05:56.646Z,8.25
2018-05-29T03:06:30.503Z,8.32
2018-05-29T03:07:04.402Z,7.90
2018-05-29T03:07:38.299Z,7.10
2018-05-29T03:08:12.241Z,8.43
2018-05-29T03:08:46.127Z,8.10
2018-05-29T03:09:19.998Z,8.05
2018-05-29T03:09:53.879Z,8.25
2018-05-29T03:10:27.754Z,7.97
2018-05-29T03:11:01.830Z,8.05
2018-05-29T03:11:35.678Z,7.68
2018-05-29T03:12:09.568Z,8.38
2018-05-29T03:12:43.490Z,7.75
2018-05-29T03:13:17.345Z,7.97
2018-05-29T03:13:51.414Z,8.73
2018-05-29T03:14:25.282Z,7.78
2018-05-29T03:14:59.382Z,8.05
2018-05-29T03:15:33.253Z,8.10
2018-05-29T03:16:07.128Z,8.00
2018-05-29T03:16:40.985Z,8.00
2018-05-29T03:17:14.833Z,8.15
2018-05-29T03:17:48.706Z,7.97
2018-05-29T03:18:22.604Z,8.50
2018-05-29T03:18:56.635Z,8.45
2018-05-29T03:19:30.763Z,7.57
2018-05-29T03:20:04.608Z,8.05
2018-05-29T03:20:38.491Z,7.55
2018-05-29T03:21:12.476Z,7.97
2018-05-29T03:21:46.386Z,7.47
2018-05-29T03:22:20.276Z,7.65
2018-05-29T03:22:54.172Z,8.82
2018-05-29T03:23:28.112Z,8.20
2018-05-29T03:24:01.993Z,8.00
2018-05-29T03:24:35.878Z,8.18
2018-05-29T03:25:10.687Z,7.82
2018-05-29T03:25:44.716Z,7.70
2018-05-29T03:26:19.041Z,8.23
2018-05-29T03:26:52.918Z,7.97
2018-05-29T03:27:26.795Z,7.53
2018-05-29T03:28:00.676Z,7.70
2018-05-29T03:28:34.709Z,8.60
2018-05-29T03:29:08.589Z,7.53
2018-05-29T03:29:42.467Z,7.53
2018-05-29T03:30:16.350Z,8.07
2018-05-29T03:30:50.236Z,7.90
2018-05-29T03:31:24.116Z,9.05
2018-05-29T03:31:58.012Z,7.95
2018-05-29T03:32:31.919Z,7.28
2018-05-29T03:33:05.877Z,7.35
2018-05-29T03:33:39.731Z,8.18
2018-05-29T03:34:13.609Z,8.45
2018-05-29T03:34:47.472Z,8.23
2018-05-29T03:35:21.351Z,7.00
2018-05-29T03:35:55.233Z,7.30
2018-05-29T03:36:29.489Z,9.93
2018-05-29T03:37:03.384Z,8.55
2018-05-29T03:37:37.251Z,8.90
2018-05-29T03:38:11.144Z,8.27
2018-05-29T03:38:45.130Z,8.20
2018-05-29T03:39:19.078Z,7.70
2018-05-29T03:39:52.974Z,7.57
2018-05-29T03:40:26.937Z,8.40
2018-05-29T03:41:00.812Z,8.70
2018-05-29T03:41:34.720Z,7.87
2018-05-29T03:42:08.599Z,7.47
2018-05-29T03:42:42.459Z,7.35
2018-05-29T03:43:16.343Z,8.18
2018-05-29T03:43:50.235Z,8.48
2018-05-29T03:44:24.198Z,7.20
2018-05-29T03:44:58.068Z,8.23
2018-05-29T03:45:31.944Z,7.75
2018-05-29T03:46:05.815Z,7.53
2018-05-29T03:46:39.756Z,7.62
2018-05-29T03:47:13.663Z,8.60
2018-05-29T03:47:47.662Z,8.70
2018-05-29T03:48:21.566Z,8.20
2018-05-29T03:48:55.536Z,8.07
2018-05-29T03:49:29.435Z,7.87
2018-05-29T03:50:03.292Z,8.05
2018-05-29T03:50:37.221Z,8.05
2018-05-29T03:51:11.256Z,8.25
2018-05-29T03:51:45.123Z,7.90
2018-05-29T03:52:19.002Z,7.93
2018-05-29T03:52:52.861Z,8.27
2018-05-29T03:53:26.736Z,7.68
2018-05-29T03:54:00.587Z,8.65
2018-05-29T03:54:34.844Z,8.75
2018-05-29T03:55:08.723Z,7.93
2018-05-29T03:55:42.596Z,7.05
2018-05-29T03:56:16.619Z,8.35
2018-05-29T03:56:50.474Z,7.97
2018-05-29T03:57:24.522Z,8.02
2018-05-29T03:57:58.380Z,8.50
2018-05-29T03:58:32.416Z,8.00
2018-05-29T03:59:06.339Z,7.95
2018-05-29T03:59:40.229Z,8.55
2018-05-29T04:00:14.100Z,9.35
2018-05-29T04:00:48.454Z,7.93
2018-05-29T04:01:22.506Z,8.15
2018-05-29T04:01:56.385Z,8.30
2018-05-29T04:02:30.306Z,7.72
2018-05-29T04:03:04.174Z,7.68
2018-05-29T04:03:38.082Z,8.77
2018-05-29T04:04:12.065Z,8.32
2018-05-29T04:04:45.943Z,8.30
2018-05-29T04:05:19.820Z,8.65
2018-05-29T04:05:54.544Z,8.73
2018-05-29T04:06:28.583Z,7.85
2018-05-29T04:07:02.442Z,7.90
2018-05-29T04:07:36.500Z,8.43
2018-05-29T04:08:10.593Z,7.62
2018-05-29T04:08:44.470Z,8.27
2018-05-29T04:09:18.507Z,8.13
2018-05-29T04:09:52.345Z,8.00
2018-05-29T04:10:26.221Z,8.10
2018-05-29T04:11:00.234Z,9.27
2018-05-29T04:11:34.231Z,7.85
2018-05-29T04:12:08.100Z,9.10
2018-05-29T04:12:41.965Z,7.65
2018-05-29T04:13:15.813Z,7.87
2018-05-29T04:13:49.727Z,8.27
2018-05-29T04:14:23.600Z,8.35
2018-05-29T04:14:57.597Z,8.80
2018-05-29T04:15:31.598Z,8.52
2018-05-29T04:16:05.467Z,7.60
2018-05-29T04:16:39.346Z,8.50
2018-05-29T04:17:13.381Z,7.70
2018-05-29T04:17:47.250Z,8.98
2018-05-29T04:18:21.133Z,8.40
2018-05-29T04:18:55.027Z,8.38
2018-05-29T04:19:28.895Z,8.45
2018-05-29T04:20:02.755Z,8.05
2018-05-29T04:20:36.777Z,7.97
2018-05-29T04:21:10.645Z,7.90
2018-05-29T04:21:44.664Z,8.30
2018-05-29T04:22:18.540Z,8.35
2018-05-29T04:22:52.394Z,7.82
2018-05-29T04:23:26.348Z,8.90
2018-05-29T04:24:00.240Z,8.48
2018-05-29T04:24:34.115Z,9.07
2018-05-29T04:25:07.996Z,9.27
2018-05-29T04:25:41.847Z,7.97
2018-05-29T04:26:15.723Z,9.23
2018-05-29T04:26:49.736Z,8.43
2018-05-29T04:27:23.598Z,7.93
2018-05-29T04:27:57.463Z,8.38
2018-05-29T04:28:31.348Z,8.40
2018-05-29T04:29:05.240Z,8.00
2018-05-29T04:29:39.292Z,8.65
2018-05-29T04:30:13.150Z,8.65
2018-05-29T04:30:47.178Z,8.82
2018-05-29T04:31:21.071Z,8.45
2018-05-29T04:31:55.049Z,8.07
2018-05-29T04:32:29.067Z,8.52
2018-05-29T04:33:02.944Z,9.02
2018-05-29T04:33:36.959Z,8.65
2018-05-29T04:34:10.916Z,8.40
2018-05-29T04:34:44.963Z,8.07
2018-05-29T04:35:18.876Z,7.90
2018-05-29T04:35:52.751Z,9.45
2018-05-29T04:36:26.748Z,8.95
2018-05-29T04:37:00.621Z,9.23
2018-05-29T04:37:34.584Z,8.65
2018-05-29T04:38:08.433Z,8.25
2018-05-29T04:38:42.307Z,8.15
2018-05-29T04:39:16.327Z,8.13
2018-05-29T04:39:50.320Z,8.00
2018-05-29T04:40:24.197Z,8.50
2018-05-29T04:40:58.325Z,8.15
2018-05-29T04:41:32.335Z,8.77
2018-05-29T04:42:06.198Z,7.65
2018-05-29T04:42:40.326Z,8.55
2018-05-29T04:43:14.182Z,8.10
2018-05-29T04:43:48.078Z,8.23
2018-05-29T04:44:21.964Z,9.07
2018-05-29T04:44:55.873Z,9.10
2018-05-29T04:45:29.823Z,8.23
2018-05-29T04:46:03.668Z,8.70
2018-05-29T04:46:37.731Z,8.57
2018-05-29T04:47:11.650Z,7.80
2018-05-29T04:47:45.512Z,8.15
2018-05-29T04:48:19.420Z,8.10
2018-05-29T04:48:53.695Z,8.27
2018-05-29T04:49:27.601Z,8.98
2018-05-29T04:50:01.467Z,8.82
2018-05-29T04:50:35.324Z,8.73
2018-05-29T04:51:09.189Z,7.70
2018-05-29T04:51:43.159Z,8.30
2018-05-29T04:52:17.045Z,7.93
2018-05-29T04:52:50.916Z,8.10
2018-05-29T04:53:24.800Z,8.05
2018-05-29T04:53:58.658Z,7.70
2018-05-29T04:54:32.657Z,8.20
2018-05-29T04:55:06.538Z,7.35
2018-05-29T04:55:40.418Z,8.38
2018-05-29T04:56:14.283Z,8.38
2018-05-29T04:56:48.164Z,8.70
2018-05-29T04:57:22.042Z,8.43
2018-05-29T04:57:55.895Z,8.10
2018-05-29T04:58:29.847Z,8.65
2018-05-29T04:59:03.720Z,8.95
2018-05-29T04:59:37.781Z,8.52
2018-05-29T05:00:11.809Z,8.43
2018-05-29T05:00:45.672Z,8.65
2018-05-29T05:01:19.702Z,8.52
2018-05-29T05:01:53.609Z,8.85
2018-05-29T05:02:27.479Z,8.02
2018-05-29T05:03:01.384Z,8.63
2018-05-29T05:03:35.259Z,8.05
2018-05-29T05:04:09.119Z,8.30
2018-05-29T05:04:43.021Z,7.37
2018-05-29T05:05:16.895Z,8.90
2018-05-29T05:05:50.948Z,8.68
2018-05-29T05:06:24.867Z,8.27
2018-05-29T05:06:58.716Z,8.25
2018-05-29T05:07:32.579Z,8.00
2018-05-29T05:08:06.467Z,8.88
2018-05-29T05:08:40.329Z,8.65
2018-05-29T05:09:14.282Z,8.40
2018-05-29T05:09:48.173Z,9.30
2018-05-29T05:10:22.044Z,8.75
2018-05-29T05:10:56.010Z,9.35
2018-05-29T05:11:29.928Z,8.13
2018-05-29T05:12:03.997Z,8.63
2018-05-29T05:12:37.950Z,8.45
2018-05-29T05:13:11.848Z,9.07
2018-05-29T05:13:45.710Z,9.15
2018-05-29T05:14:19.769Z,8.70
2018-05-29T05:14:53.816Z,8.40
2018-05-29T05:15:27.681Z,8.07
2018-05-29T05:16:01.544Z,7.45
2018-05-29T05:16:35.423Z,7.93
2018-05-29T05:17:09.296Z,8.73
2018-05-29T05:17:43.167Z,8.30
2018-05-29T05:18:17.176Z,8.80
2018-05-29T05:18:51.047Z,8.45
2018-05-29T05:19:25.148Z,8.48
2018-05-29T05:19:59.082Z,8.30
2018-05-29T05:20:32.951Z,8.75
2018-05-29T05:21:06.818Z,8.90
2018-05-29T05:21:40.682Z,8.05
2018-05-29T05:22:18.411Z,8.73
2018-05-29T05:22:52.302Z,8.40
2018-05-29T05:23:26.167Z,8.93
2018-05-29T05:24:00.032Z,8.02
2018-05-29T05:24:33.903Z,8.15
2018-05-29T05:25:07.888Z,8.35
2018-05-29T05:25:41.783Z,7.62
2018-05-29T05:26:15.677Z,8.25
2018-05-29T05:26:49.560Z,8.10
2018-05-29T05:27:23.426Z,8.88
2018-05-29T05:27:57.475Z,8.13
2018-05-29T05:28:31.352Z,8.90
2018-05-29T05:29:05.213Z,8.10
2018-05-29T05:29:39.072Z,8.32
2018-05-29T05:30:12.964Z,8.10
2018-05-29T05:30:46.859Z,8.85
2018-05-29T05:31:20.727Z,8.73
2018-05-29T05:31:54.600Z,9.02
2018-05-29T05:32:28.478Z,7.50
2018-05-29T05:33:02.383Z,8.60
2018-05-29T05:33:36.236Z,9.05
2018-05-29T05:34:10.354Z,8.38
2018-05-29T05:34:44.310Z,8.73
2018-05-29T05:35:18.273Z,8.48
2018-05-29T05:35:52.154Z,8.23
2018-05-29T05:36:26.051Z,8.70
2018-05-29T05:37:00.050Z,8.20
2018-05-29T05:37:34.029Z,8.48
2018-05-29T05:38:07.902Z,8.68
2018-05-29T05:38:41.811Z,7.18
2018-05-29T05:39:15.744Z,8.18
2018-05-29T05:39:49.638Z,7.75
2018-05-29T05:40:23.777Z,7.75
2018-05-29T05:40:57.643Z,8.32
2018-05-29T05:41:32.003Z,8.38
2018-05-29T05:42:05.921Z,7.60
2018-05-29T05:42:39.793Z,7.80
2018-05-29T05:43:13.657Z,8.48
2018-05-29T05:43:47.539Z,7.78
2018-05-29T05:44:21.455Z,8.48
2018-05-29T05:44:55.328Z,9.32
2018-05-29T05:45:29.250Z,8.20
2018-05-29T05:46:03.173Z,7.95
2018-05-29T05:46:37.043Z,8.60
2018-05-29T05:47:10.959Z,8.25
2018-05-29T05:47:44.867Z,8.35
2018-05-29T05:48:19.055Z,8.57
2018-05-29T05:48:53.043Z,8.15
2018-05-29T05:49:27.229Z,8.20
2018-05-29T05:50:01.128Z,8.30
2018-05-29T05:50:35.008Z,7.75
2018-05-29T05:51:08.952Z,7.75
2018-05-29T05:51:42.847Z,7.15
2018-05-29T05:52:16.894Z,7.65
2018-05-29T05:52:50.771Z,7.93
2018-05-29T05:53:24.638Z,7.85
2018-05-29T05:53:59.641Z,8.15
2018-05-29T05:54:33.582Z,8.15
2018-05-29T05:55:07.453Z,7.47
2018-05-29T05:55:42.337Z,7.37
2018-05-29T05:56:16.252Z,8.60
2018-05-29T05:56:50.124Z,8.40
2018-05-29T05:57:24.283Z,8.10
2018-05-29T05:57:58.146Z,8.05
2018-05-29T05:58:32.343Z,8.55
2018-05-29T05:59:06.250Z,7.30
2018-05-29T05:59:40.129Z,8.00
2018-05-29T06:00:14.003Z,7.97
2018-05-29T06:00:47.913Z,8.35
2018-05-29T06:01:22.118Z,8.20
2018-05-29T06:01:56.113Z,8.20
2018-05-29T06:02:29.972Z,8.55
2018-05-29T06:03:04.102Z,7.87
2018-05-29T06:03:38.106Z,7.85
2018-05-29T06:04:12.103Z,8.15
2018-05-29T06:04:46.004Z,8.15
2018-05-29T06:05:21.669Z,7.80
2018-05-29T06:05:55.572Z,8.23
2018-05-29T06:06:29.504Z,8.00
2018-05-29T06:07:03.376Z,7.57
2018-05-29T06:07:37.417Z,8.25
2018-05-29T06:08:11.292Z,7.82
2018-05-29T06:08:45.457Z,8.77
2018-05-29T06:09:19.412Z,8.80
2018-05-29T06:09:58.387Z,8.40
2018-05-29T06:10:33.793Z,7.80
2018-05-29T06:11:19.369Z,8.35
2018-05-29T06:11:54.343Z,8.07
2018-05-29T06:12:28.235Z,7.03
2018-05-29T06:13:47.293Z,7.87
2018-05-29T06:14:21.302Z,8.27
2018-05-29T06:14:55.829Z,7.47
2018-05-29T06:15:31.218Z,8.10
2018-05-29T06:16:05.107Z,8.45
2018-05-29T06:16:39.031Z,7.97
2018-05-29T06:17:12.915Z,7.80
2018-05-29T06:17:46.807Z,7.45
2018-05-29T06:18:20.701Z,8.27
2018-05-29T06:18:54.722Z,7.70
2018-05-29T06:19:28.600Z,7.18
2018-05-29T06:20:02.479Z,7.68
2018-05-29T06:20:36.384Z,7.55
2018-05-29T06:21:10.383Z,8.35
2018-05-29T06:21:44.283Z,7.07
2018-05-29T06:22:18.557Z,7.32
2018-05-29T06:22:52.427Z,7.75
2018-05-29T06:23:26.329Z,7.75
2018-05-29T06:24:00.262Z,7.82
2018-05-29T06:24:34.150Z,7.82
2018-05-29T06:25:08.098Z,6.93
2018-05-29T06:25:41.964Z,6.55
2018-05-29T06:26:15.844Z,6.90
2018-05-29T06:26:49.791Z,7.72
2018-05-29T06:27:23.683Z,7.62
2018-05-29T06:27:57.740Z,7.25
2018-05-29T06:28:31.839Z,7.05
2018-05-29T06:29:05.864Z,7.15
2018-05-29T06:29:39.714Z,7.20
2018-05-29T06:30:13.596Z,6.90
2018-05-29T06:30:47.516Z,7.28
2018-05-29T06:31:21.419Z,7.45
2018-05-29T06:31:55.329Z,7.47
2018-05-29T06:32:29.211Z,7.60
2018-05-29T06:33:03.221Z,7.47
2018-05-29T06:33:37.090Z,6.70
2018-05-29T06:34:11.010Z,7.40
2018-05-29T06:34:44.885Z,6.95
2018-05-29T06:35:18.854Z,6.97
2018-05-29T06:35:53.069Z,7.00
2018-05-29T06:36:27.091Z,6.80
2018-05-29T06:37:00.979Z,6.57
2018-05-29T06:37:34.967Z,7.60
2018-05-29T06:38:08.940Z,6.80
2018-05-29T06:38:42.916Z,7.47
2018-05-29T06:39:16.754Z,6.53
2018-05-29T06:39:50.762Z,7.93
2018-05-29T06:40:24.672Z,7.15
2018-05-29T06:40:58.580Z,8.15
2018-05-29T06:41:33.303Z,8.45
2018-05-29T06:42:10.409Z,7.12
2018-05-29T06:42:48.244Z,7.30
2018-05-29T06:43:31.920Z,6.97
2018-05-29T06:44:11.640Z,6.43
2018-05-29T06:44:53.226Z,6.60
2018-05-29T06:45:30.842Z,7.40
2018-05-29T06:46:06.977Z,7.12
2018-05-29T06:46:41.526Z,6.37
2018-05-29T06:47:16.951Z,7.05
2018-05-29T06:47:54.061Z,6.53
2018-05-29T06:48:32.360Z,6.95
2018-05-29T06:49:07.255Z,7.30
2018-05-29T06:49:41.198Z,6.50
2018-05-29T06:50:15.341Z,7.05
2018-05-29T06:50:49.378Z,6.60
2018-05-29T06:51:23.418Z,6.78
2018-05-29T06:51:57.416Z,7.00
2018-05-29T06:52:32.818Z,7.00
2018-05-29T06:53:06.745Z,7.00
2018-05-29T06:53:43.518Z,7.28
2018-05-29T06:54:19.075Z,6.35
2018-05-29T06:54:54.374Z,6.62
2018-05-29T06:55:28.259Z,6.72
2018-05-29T06:56:02.341Z,7.53
2018-05-29T06:56:36.482Z,7.20
2018-05-29T06:57:11.205Z,7.00
2018-05-29T06:57:45.107Z,6.68
2018-05-29T06:58:18.964Z,6.72
2018-05-29T06:58:53.451Z,7.00
2018-05-29T06:59:27.783Z,6.80
2018-05-29T07:00:01.710Z,7.18
2018-05-29T07:00:36.309Z,7.15
2018-05-29T07:01:10.210Z,7.12
2018-05-29T07:01:44.098Z,6.93
2018-05-29T07:02:18.047Z,7.30
2018-05-29T07:02:52.408Z,6.90
2018-05-29T07:03:26.373Z,6.60
2018-05-29T07:04:00.532Z,6.50
2018-05-29T07:04:34.371Z,7.82
2018-05-29T07:05:08.394Z,6.00
2018-05-29T07:05:42.240Z,6.35
2018-05-29T07:06:17.178Z,6.37
2018-05-29T07:06:51.121Z,6.45
2018-05-29T07:07:25.843Z,6.28
2018-05-29T07:07:59.997Z,6.43
2018-05-29T07:08:33.861Z,6.47
2018-05-29T07:09:08.324Z,6.50
2018-05-29T07:09:42.283Z,6.93
2018-05-29T07:10:16.169Z,7.00
2018-05-29T07:10:50.096Z,6.47
2018-05-29T07:11:24.018Z,7.32
2018-05-29T07:11:58.038Z,6.05
2018-05-29T07:12:32.232Z,6.68
2018-05-29T07:13:06.783Z,6.65
2018-05-29T07:13:40.752Z,6.70
2018-05-29T07:14:15.412Z,6.97
2018-05-29T07:14:49.852Z,6.87
2018-05-29T07:15:23.922Z,6.95
2018-05-29T07:15:57.794Z,5.97
2018-05-29T07:16:31.711Z,5.72
2018-05-29T07:17:05.727Z,5.97
2018-05-29T07:17:39.629Z,6.50
2018-05-29T07:18:14.800Z,6.95
2018-05-29T07:18:49.955Z,6.05
2018-05-29T07:19:28.096Z,6.53
2018-05-29T07:20:02.868Z,6.53
2018-05-29T07:20:36.877Z,6.68
2018-05-29T07:21:12.388Z,6.35
2018-05-29T07:21:47.226Z,6.00
2018-05-29T07:22:22.504Z,6.55
2018-05-29T07:22:59.109Z,6.30
2018-05-29T07:23:34.860Z,6.10
2018-05-29T07:24:10.078Z,6.70
2018-05-29T07:24:44.328Z,6.25
2018-05-29T07:25:18.281Z,5.80
2018-05-29T07:25:52.937Z,6.62
2018-05-29T07:26:29.278Z,6.43
2018-05-29T07:27:05.835Z,6.07
2018-05-29T07:27:41.751Z,6.25
2018-05-29T07:28:17.796Z,6.82
2018-05-29T07:28:53.447Z,5.85
2018-05-29T07:29:28.647Z,6.40
2018-05-29T07:30:04.604Z,6.45
2018-05-29T07:30:40.270Z,5.70
2018-05-29T07:31:15.880Z,4.95
2018-05-29T07:31:51.550Z,4.80
2018-05-29T07:32:26.507Z,5.32
2018-05-29T07:33:00.731Z,6.15
2018-05-29T07:33:35.055Z,5.10
2018-05-29T07:34:08.932Z,5.68
2018-05-29T07:34:43.263Z,5.40
2018-05-29T07:35:19.213Z,5.10